createdAt,value
2022-10-24T00:01:44.995Z,2.15
2022-10-24T00:04:13.509Z,2.13
2022-10-24T00:06:42.244Z,2.40
2022-10-24T00:09:10.579Z,2.30
2022-10-24T00:11:39.238Z,2.05
2022-10-24T00:14:07.722Z,2.53
2022-10-24T00:16:37.424Z,2.42
2022-10-24T00:19:06.201Z,2.28
2022-10-24T00:21:34.602Z,2.40
2022-10-24T00:24:02.999Z,2.40
2022-10-24T00:26:31.339Z,2.13
2022-10-24T00:31:33.355Z,2.40
2022-10-24T00:34:03.683Z,2.50
2022-10-24T00:36:32.594Z,2.60
2022-10-24T00:39:00.915Z,2.20
2022-10-24T00:41:31.911Z,2.35
2022-10-24T00:44:31.432Z,2.00
2022-10-24T00:47:04.258Z,2.08
2022-10-24T00:49:41.097Z,2.17
2022-10-24T00:52:10.579Z,2.60
2022-10-24T00:54:41.579Z,2.55
2022-10-24T00:57:16.131Z,2.50
2022-10-24T01:04:49.615Z,2.10
2022-10-24T01:07:30.898Z,2.17
2022-10-24T01:10:19.858Z,2.10
2022-10-24T01:13:03.518Z,1.83
2022-10-24T01:15:39.999Z,2.10
2022-10-24T01:18:13.992Z,1.90
2022-10-24T01:21:11.212Z,2.00
2022-10-24T01:24:16.807Z,1.98
2022-10-24T01:29:44.637Z,1.95
2022-10-24T01:32:18.248Z,2.00
2022-10-24T01:34:51.674Z,2.30
2022-10-24T01:37:26.503Z,2.20
2022-10-24T01:39:58.780Z,2.25
2022-10-24T01:42:31.173Z,2.20
2022-10-24T01:45:02.726Z,2.20
2022-10-24T01:47:36.457Z,2.15
2022-10-24T01:50:10.942Z,2.05
2022-10-24T01:52:43.304Z,2.28
2022-10-24T01:55:12.685Z,2.08
2022-10-24T01:57:42.491Z,2.38
2022-10-24T02:00:18.901Z,2.15
2022-10-24T02:02:51.255Z,2.10
2022-10-24T02:05:25.141Z,2.40
2022-10-24T02:07:57.404Z,1.77
2022-10-24T02:10:30.708Z,1.90
2022-10-24T02:13:04.168Z,2.20
2022-10-24T02:15:37.848Z,1.95
2022-10-24T02:18:07.143Z,1.90
2022-10-24T02:20:39.784Z,2.00
2022-10-24T02:23:15.376Z,2.10
2022-10-24T02:25:49.346Z,1.90
2022-10-24T02:28:22.090Z,1.90
2022-10-24T02:30:57.026Z,1.98
2022-10-24T02:33:27.436Z,2.00
2022-10-24T02:35:56.937Z,1.70
2022-10-24T02:38:29.707Z,2.10
2022-10-24T02:40:59.743Z,1.75
2022-10-24T02:43:29.820Z,2.00
2022-10-24T02:45:59.926Z,1.75
2022-10-24T02:48:31.465Z,1.75
2022-10-24T02:51:00.907Z,1.83
2022-10-24T02:53:29.799Z,1.90
2022-10-24T02:55:58.248Z,2.00
2022-10-24T02:58:26.619Z,2.20
2022-10-24T03:00:55.015Z,1.98
2022-10-24T03:03:24.702Z,2.08
2022-10-24T03:05:52.985Z,1.90
2022-10-24T03:08:21.298Z,1.70
2022-10-24T03:10:49.613Z,1.92
2022-10-24T03:13:18.004Z,2.05
2022-10-24T03:18:15.831Z,2.20
2022-10-24T03:20:46.425Z,2.20
2022-10-24T03:23:14.847Z,2.20
2022-10-24T03:25:43.521Z,2.00
2022-10-24T03:28:11.837Z,2.03
2022-10-24T03:30:40.272Z,1.90
2022-10-24T03:33:08.581Z,1.90
2022-10-24T03:35:37.439Z,1.80
2022-10-24T03:38:08.156Z,2.10
2022-10-24T03:40:36.560Z,2.00
2022-10-24T03:43:05.489Z,2.00
2022-10-24T03:45:33.835Z,2.42
2022-10-24T03:48:02.132Z,2.10
2022-10-24T03:50:30.499Z,2.05
2022-10-24T03:52:58.818Z,2.00
2022-10-24T03:55:29.377Z,2.00
2022-10-24T03:57:57.687Z,1.85
2022-10-24T04:00:28.277Z,1.90
2022-10-24T04:02:56.667Z,2.00
2022-10-24T04:05:25.015Z,1.92
2022-10-24T04:07:53.403Z,1.98
2022-10-24T04:10:21.750Z,1.70
2022-10-24T04:12:51.561Z,1.90
2022-10-24T04:15:19.980Z,2.03
2022-10-24T04:17:48.447Z,1.50
2022-10-24T04:20:19.619Z,1.75
2022-10-24T04:22:48.273Z,1.98
2022-10-24T04:25:16.771Z,1.80
2022-10-24T04:27:45.528Z,1.60
2022-10-24T04:30:16.875Z,1.83
2022-10-24T04:32:46.041Z,1.77
2022-10-24T04:35:14.894Z,1.63
2022-10-24T04:37:43.270Z,1.77
2022-10-24T04:40:12.241Z,1.80
2022-10-24T04:42:40.602Z,1.90
2022-10-24T04:45:10.467Z,1.45
2022-10-24T04:47:40.138Z,1.50
2022-10-24T04:50:09.443Z,2.10
2022-10-24T04:52:37.811Z,2.00
2022-10-24T04:55:06.927Z,1.70
2022-10-24T04:57:35.252Z,1.75
2022-10-24T05:00:04.562Z,1.85
2022-10-24T05:02:32.953Z,1.92
2022-10-24T05:05:02.731Z,1.60
2022-10-24T05:07:31.081Z,2.00
2022-10-24T05:09:59.415Z,1.80
2022-10-24T05:12:27.806Z,1.70
2022-10-24T05:14:56.120Z,1.77
2022-10-24T05:17:24.614Z,1.75
2022-10-24T05:19:52.949Z,1.77
2022-10-24T05:22:22.645Z,1.85
2022-10-24T05:24:51.267Z,1.73
2022-10-24T05:27:24.550Z,1.88
2022-10-24T05:29:52.954Z,1.90
2022-10-24T05:32:22.594Z,1.52
2022-10-24T05:34:50.975Z,1.60
2022-10-24T05:37:19.457Z,1.58
2022-10-24T05:39:49.273Z,1.60
2022-10-24T05:42:18.193Z,2.00
2022-10-24T05:44:46.527Z,1.80
2022-10-24T05:47:14.989Z,1.60
2022-10-24T05:49:43.378Z,1.73
2022-10-24T05:52:11.694Z,1.40
2022-10-24T05:54:55.333Z,1.65
2022-10-24T05:57:30.014Z,1.65
2022-10-24T05:59:58.411Z,1.70
2022-10-24T06:02:26.913Z,1.58
2022-10-24T06:04:56.997Z,1.60
2022-10-24T06:07:25.688Z,1.38
2022-10-24T06:09:54.090Z,1.50
2022-10-24T06:12:22.436Z,1.90
2022-10-24T06:14:52.188Z,1.63
2022-10-24T06:17:20.497Z,1.50
2022-10-24T06:22:24.030Z,1.52
2022-10-24T06:24:52.621Z,1.30
2022-10-24T06:27:21.040Z,1.50
2022-10-24T06:29:49.389Z,1.38
2022-10-24T06:32:19.773Z,1.50
2022-10-24T06:34:48.093Z,1.48
2022-10-24T06:37:16.498Z,1.48
2022-10-24T06:39:44.844Z,1.38
2022-10-24T06:42:13.151Z,1.40
2022-10-24T06:44:42.762Z,1.58
2022-10-24T06:47:11.166Z,1.58
2022-10-24T06:49:40.943Z,1.38
2022-10-24T06:52:09.286Z,1.50
2022-10-24T06:54:39.071Z,1.58
2022-10-24T06:57:07.487Z,1.42
2022-10-24T06:59:35.845Z,1.60
2022-10-24T07:02:05.999Z,1.33
2022-10-24T07:04:34.674Z,1.73
2022-10-24T07:07:04.365Z,1.40
2022-10-24T07:09:32.726Z,1.60
2022-10-24T07:12:01.030Z,1.40
2022-10-24T07:14:29.403Z,1.50
2022-10-24T07:16:58.336Z,1.25
2022-10-24T07:19:26.624Z,1.50
2022-10-24T07:21:54.934Z,1.40
2022-10-24T07:24:24.566Z,1.60
2022-10-24T07:26:52.850Z,1.52
2022-10-24T07:29:21.120Z,1.30
2022-10-24T07:31:49.525Z,1.23
2022-10-24T07:34:18.480Z,1.40
2022-10-24T07:36:46.791Z,1.50
2022-10-24T07:39:15.104Z,1.38
2022-10-24T07:41:44.723Z,1.40
2022-10-24T07:44:13.069Z,1.50
2022-10-24T07:46:42.618Z,1.48
2022-10-24T07:49:11.236Z,1.20
2022-10-24T07:51:39.606Z,1.35
2022-10-24T07:54:08.011Z,1.30
2022-10-24T07:56:36.383Z,1.25
2022-10-24T07:59:09.649Z,1.58
2022-10-24T08:01:42.275Z,1.30
2022-10-24T08:04:11.065Z,1.10
2022-10-24T08:06:40.640Z,1.50
2022-10-24T08:09:09.261Z,1.40
2022-10-24T08:11:37.571Z,1.50
2022-10-24T08:14:07.255Z,1.40
2022-10-24T08:16:35.597Z,1.20
2022-10-24T08:19:04.019Z,1.20
2022-10-24T08:21:33.453Z,1.60
2022-10-24T08:24:01.823Z,1.50
2022-10-24T08:26:30.131Z,1.20
2022-10-24T08:28:58.416Z,1.58
2022-10-24T08:31:28.059Z,1.17
2022-10-24T08:33:57.212Z,1.30
2022-10-24T08:36:28.768Z,1.20
2022-10-24T08:38:57.698Z,1.55
2022-10-24T08:41:31.643Z,1.30
2022-10-24T08:44:03.423Z,1.20
2022-10-24T08:46:50.271Z,1.40
2022-10-24T08:49:29.252Z,1.40
2022-10-24T08:52:01.511Z,1.20
2022-10-24T08:54:36.821Z,1.30
2022-10-24T08:57:07.103Z,1.20
2022-10-24T08:59:37.433Z,1.20
2022-10-24T09:02:18.193Z,1.83
2022-10-24T09:04:52.685Z,1.35
2022-10-24T09:09:53.258Z,1.52
2022-10-24T09:12:22.442Z,1.10
2022-10-24T09:14:56.037Z,1.15
2022-10-24T09:17:31.200Z,1.10
2022-10-24T09:20:01.429Z,1.42
2022-10-24T09:22:34.535Z,1.55
2022-10-24T09:25:05.814Z,1.48
2022-10-24T09:27:37.995Z,1.05
2022-10-24T09:30:08.434Z,1.33
2022-10-24T09:32:38.157Z,1.17
2022-10-24T09:35:09.006Z,1.08
2022-10-24T09:37:44.382Z,1.40
2022-10-24T09:40:22.630Z,1.10
2022-10-24T09:42:59.628Z,1.30
2022-10-24T09:45:40.550Z,1.23
2022-10-24T09:48:26.016Z,1.15
2022-10-24T09:50:58.478Z,1.35
2022-10-24T09:53:30.320Z,1.10
2022-10-24T09:56:00.578Z,1.13
2022-10-24T09:58:32.735Z,1.25
2022-10-24T10:01:05.129Z,1.30
2022-10-24T10:03:35.795Z,1.30
2022-10-24T10:06:15.438Z,1.38
2022-10-24T10:08:50.974Z,1.42
2022-10-24T10:11:27.445Z,1.70
2022-10-24T10:13:55.980Z,1.27
2022-10-24T10:16:26.837Z,1.30
2022-10-24T10:19:05.305Z,1.20
2022-10-24T10:21:56.229Z,1.20
2022-10-24T10:24:27.815Z,1.25
2022-10-24T10:26:56.104Z,1.23
2022-10-24T10:29:25.339Z,1.15
2022-10-24T10:32:01.069Z,1.30
2022-10-24T10:34:39.069Z,1.30
2022-10-24T10:37:28.144Z,1.13
2022-10-24T10:40:21.543Z,1.40
2022-10-24T10:43:05.486Z,1.45
2022-10-24T10:45:37.296Z,1.43
2022-10-24T10:48:32.802Z,1.15
2022-10-24T10:51:09.482Z,1.23
2022-10-24T10:53:43.459Z,1.40
2022-10-24T10:56:23.359Z,1.27
2022-10-24T10:59:03.452Z,1.20
2022-10-24T11:01:48.172Z,1.20
2022-10-24T11:06:57.878Z,1.58
2022-10-24T11:09:30.722Z,1.20
2022-10-24T11:12:08.581Z,1.20
2022-10-24T11:14:40.091Z,1.30
2022-10-24T11:17:15.985Z,1.35
2022-10-24T11:19:55.937Z,1.42
2022-10-24T11:22:29.337Z,1.40
2022-10-24T11:25:02.583Z,1.27
2022-10-24T11:27:39.806Z,1.45
2022-10-24T11:30:16.114Z,1.30
2022-10-24T11:32:51.712Z,1.15
2022-10-24T11:35:28.721Z,1.20
2022-10-24T11:38:03.640Z,1.10
2022-10-24T11:40:32.082Z,1.30
2022-10-24T11:43:12.568Z,1.20
2022-10-24T11:45:46.889Z,1.20
2022-10-24T11:48:20.312Z,1.02
2022-10-24T11:50:53.979Z,0.98
2022-10-24T11:53:45.806Z,1.25
2022-10-24T11:56:23.653Z,1.15
2022-10-24T11:58:59.675Z,1.25
2022-10-24T12:01:48.274Z,1.20
2022-10-24T12:04:41.693Z,1.00
2022-10-24T12:07:48.708Z,1.38
2022-10-24T12:10:40.616Z,1.30
2022-10-24T12:13:32.852Z,1.20
2022-10-24T12:16:08.734Z,1.17
2022-10-24T12:18:40.729Z,1.17
2022-10-24T12:21:12.654Z,1.10
2022-10-24T12:23:42.148Z,1.40
2022-10-24T12:26:20.162Z,1.20
2022-10-24T12:28:55.888Z,1.20
2022-10-24T12:31:29.213Z,1.10
2022-10-24T12:34:34.352Z,1.50
2022-10-24T12:37:08.175Z,1.13
2022-10-24T12:39:41.446Z,1.60
2022-10-24T12:42:17.533Z,1.67
2022-10-24T12:44:47.944Z,1.45
2022-10-24T12:47:37.494Z,1.23
2022-10-24T12:50:57.231Z,1.38
2022-10-24T12:54:03.116Z,1.20
2022-10-24T12:56:32.879Z,1.40
2022-10-24T12:59:05.449Z,1.20
2022-10-24T13:01:37.601Z,1.65
2022-10-24T13:04:36.929Z,1.00
2022-10-24T13:07:37.590Z,1.20
2022-10-24T13:10:25.810Z,1.20
2022-10-24T13:15:52.728Z,1.20
2022-10-24T13:18:45.218Z,1.45
2022-10-24T13:21:24.280Z,1.30
2022-10-24T13:23:53.067Z,1.00
2022-10-24T13:26:38.388Z,1.10
2022-10-24T13:29:14.129Z,1.10
2022-10-24T13:31:49.341Z,1.13
2022-10-24T13:34:26.524Z,0.90
2022-10-24T13:37:02.390Z,1.15
2022-10-24T13:39:38.747Z,1.10
2022-10-24T13:42:24.871Z,1.23
2022-10-24T13:44:58.615Z,1.05
2022-10-24T13:47:32.581Z,1.10
2022-10-24T13:50:04.866Z,1.10
2022-10-24T13:52:39.510Z,1.10
2022-10-24T13:55:23.149Z,1.17
2022-10-24T13:57:57.317Z,1.30
2022-10-24T14:00:28.519Z,0.90
2022-10-24T14:03:00.830Z,1.20
2022-10-24T14:05:35.928Z,1.15
2022-10-24T14:08:06.487Z,1.33
2022-10-24T14:10:35.227Z,1.38
2022-10-24T14:13:05.064Z,1.30
2022-10-24T14:15:34.278Z,1.30
2022-10-24T14:18:14.193Z,1.20
2022-10-24T14:20:43.426Z,1.13
2022-10-24T14:23:25.404Z,1.33
2022-10-24T14:25:57.478Z,1.20
2022-10-24T14:28:28.261Z,1.10
2022-10-24T14:30:59.144Z,1.30
2022-10-24T14:33:30.353Z,1.55
2022-10-24T14:36:01.215Z,1.33
2022-10-24T14:38:29.919Z,1.27
2022-10-24T14:41:09.171Z,1.17
2022-10-24T14:43:41.894Z,1.30
2022-10-24T14:46:35.350Z,1.25
2022-10-24T14:49:21.689Z,1.23
2022-10-24T14:54:23.998Z,1.20
2022-10-24T14:56:54.323Z,1.40
2022-10-24T14:59:26.907Z,1.10
2022-10-24T15:01:56.725Z,1.25
2022-10-24T15:04:33.113Z,1.20
2022-10-24T15:07:14.123Z,1.20
2022-10-24T15:09:53.023Z,1.10
2022-10-24T15:12:28.060Z,1.02
2022-10-24T15:14:59.907Z,1.20
2022-10-24T15:17:32.724Z,1.10
2022-10-24T15:20:04.879Z,1.00
2022-10-24T15:22:37.441Z,1.08
2022-10-24T15:25:10.117Z,1.20
2022-10-24T15:27:41.359Z,1.30
2022-10-24T15:30:15.174Z,1.20
2022-10-24T15:32:43.904Z,1.42
2022-10-24T15:35:14.421Z,1.20
2022-10-24T15:37:53.110Z,1.17
2022-10-24T15:40:24.108Z,1.60
2022-10-24T15:42:52.440Z,1.30
2022-10-24T15:45:21.392Z,1.15
2022-10-24T15:47:50.901Z,1.20
2022-10-24T15:52:57.841Z,1.15
2022-10-24T15:55:28.439Z,1.52
2022-10-24T15:57:59.727Z,1.20
2022-10-24T16:00:28.138Z,1.25
2022-10-24T16:03:00.705Z,1.20
2022-10-24T16:05:33.130Z,1.20
2022-10-24T16:08:01.558Z,1.60
2022-10-24T16:10:29.948Z,1.40
2022-10-24T16:12:58.254Z,1.15
2022-10-24T16:15:29.643Z,1.38
2022-10-24T16:17:57.983Z,1.42
2022-10-24T16:20:26.572Z,1.40
2022-10-24T16:22:56.271Z,1.10
2022-10-24T16:25:26.956Z,1.50
2022-10-24T16:27:55.512Z,1.10
2022-10-24T16:30:26.032Z,1.05
2022-10-24T16:32:54.457Z,1.48
2022-10-24T16:35:25.653Z,1.20
2022-10-24T16:37:57.104Z,1.50
2022-10-24T16:40:27.626Z,1.05
2022-10-24T16:42:57.820Z,1.30
2022-10-24T16:45:26.441Z,1.13
2022-10-24T16:47:54.774Z,1.40
2022-10-24T16:50:26.142Z,1.30
2022-10-24T16:52:57.582Z,1.15
2022-10-24T16:55:26.347Z,1.20
2022-10-24T16:57:54.755Z,1.10
2022-10-24T17:00:24.111Z,1.85
2022-10-24T17:02:55.148Z,2.95
2022-10-24T17:05:26.913Z,2.80
2022-10-24T17:07:57.168Z,2.92
2022-10-24T17:10:25.637Z,2.85
2022-10-24T17:12:54.351Z,3.95
2022-10-24T17:15:22.961Z,4.00
2022-10-24T17:17:51.630Z,2.20
2022-10-24T17:20:20.010Z,1.60
2022-10-24T17:22:49.253Z,2.05
2022-10-24T17:25:23.422Z,1.83
2022-10-24T17:27:52.705Z,1.77
2022-10-24T17:30:23.481Z,1.50
2022-10-24T17:32:52.009Z,1.30
2022-10-24T17:35:22.883Z,1.17
2022-10-24T17:38:02.307Z,1.10
2022-10-24T17:40:40.953Z,0.93
2022-10-24T17:43:18.033Z,0.90
2022-10-24T17:45:47.344Z,1.10
2022-10-24T17:48:16.336Z,1.20
2022-10-24T17:50:45.886Z,0.98
2022-10-24T17:53:15.038Z,0.90
2022-10-24T17:55:46.791Z,0.90
2022-10-24T17:58:16.522Z,1.40
2022-10-24T18:00:45.949Z,1.20
2022-10-24T18:03:15.124Z,1.17
2022-10-24T18:05:43.549Z,1.10
2022-10-24T18:08:12.968Z,1.48
2022-10-24T18:10:42.230Z,1.40
2022-10-24T18:13:12.120Z,1.30
2022-10-24T18:15:40.467Z,1.02
2022-10-24T18:18:08.827Z,1.00
2022-10-24T18:20:37.230Z,1.00
2022-10-24T18:23:05.634Z,1.10
2022-10-24T18:25:33.995Z,1.00
2022-10-24T18:28:02.331Z,1.10
2022-10-24T18:30:32.190Z,1.05
2022-10-24T18:33:00.598Z,1.00
2022-10-24T18:35:33.019Z,0.95
2022-10-24T18:38:02.062Z,1.10
2022-10-24T18:40:33.356Z,1.40
2022-10-24T18:43:05.224Z,1.20
2022-10-24T18:45:36.169Z,1.10
2022-10-24T18:48:05.307Z,1.40
2022-10-24T18:50:33.955Z,1.10
2022-10-24T18:53:05.725Z,1.10
2022-10-24T18:55:36.351Z,1.08
2022-10-24T18:58:05.228Z,1.00
2022-10-24T19:00:38.112Z,0.90
2022-10-24T19:03:18.225Z,0.95
2022-10-24T19:05:52.020Z,1.00
2022-10-24T19:08:25.531Z,1.05
2022-10-24T19:10:56.300Z,1.45
2022-10-24T19:13:26.386Z,1.48
2022-10-24T19:15:58.660Z,1.98
2022-10-24T19:18:29.599Z,2.13
2022-10-24T19:20:57.934Z,1.60
2022-10-24T19:23:26.439Z,1.70
2022-10-24T19:25:54.911Z,1.50
2022-10-24T19:28:23.358Z,1.70
2022-10-24T19:30:51.780Z,1.70
2022-10-24T19:33:24.944Z,1.80
2022-10-24T19:35:53.343Z,2.10
2022-10-24T19:38:21.873Z,2.00
2022-10-24T19:40:52.625Z,1.90
2022-10-24T19:43:21.676Z,2.55
2022-10-24T19:46:07.210Z,2.60
2022-10-24T19:48:37.888Z,2.60
2022-10-24T19:51:07.839Z,3.20
2022-10-24T19:53:37.094Z,3.55
2022-10-24T19:56:06.822Z,4.22
2022-10-24T19:58:35.179Z,4.50
2022-10-24T20:01:07.556Z,3.20
2022-10-24T20:03:38.530Z,3.03
2022-10-24T20:06:07.494Z,2.95
2022-10-24T20:08:36.395Z,2.30
2022-10-24T20:11:06.043Z,2.40
2022-10-24T20:13:35.059Z,2.60
2022-10-24T20:16:05.870Z,2.20
2022-10-24T20:18:35.605Z,2.03
2022-10-24T20:21:07.321Z,1.70
2022-10-24T20:23:36.362Z,1.58
2022-10-24T20:26:07.216Z,2.00
2022-10-24T20:28:36.608Z,1.58
2022-10-24T20:31:05.496Z,1.60
2022-10-24T20:33:33.802Z,1.65
2022-10-24T20:36:02.769Z,1.50
2022-10-24T20:38:33.908Z,1.38
2022-10-24T20:41:02.857Z,1.58
2022-10-24T20:43:32.579Z,1.52
2022-10-24T20:46:04.871Z,1.30
2022-10-24T20:48:33.745Z,1.65
2022-10-24T20:51:06.767Z,1.50
2022-10-24T20:53:36.480Z,1.30
2022-10-24T20:56:06.402Z,1.50
2022-10-24T20:58:34.835Z,1.20
2022-10-24T21:01:07.538Z,1.33
2022-10-24T21:03:36.973Z,1.20
2022-10-24T21:06:06.925Z,1.15
2022-10-24T21:08:36.582Z,1.30
2022-10-24T21:11:07.082Z,1.58
2022-10-24T21:13:35.470Z,1.45
2022-10-24T21:16:04.048Z,1.30
2022-10-24T21:18:32.694Z,1.20
2022-10-24T21:21:07.066Z,1.27
2022-10-24T21:23:37.000Z,2.13
2022-10-24T21:26:06.797Z,4.20
2022-10-24T21:28:35.782Z,5.47
2022-10-24T21:31:05.831Z,3.08
2022-10-24T21:33:34.556Z,2.50
2022-10-24T21:36:06.251Z,2.40
2022-10-24T21:38:36.358Z,2.00
2022-10-24T21:41:06.677Z,2.00
2022-10-24T21:43:36.630Z,1.90
2022-10-24T21:46:07.408Z,1.50
2022-10-24T21:48:36.416Z,1.40
2022-10-24T21:51:07.398Z,1.60
2022-10-24T21:53:41.577Z,1.30
2022-10-24T21:56:12.138Z,1.20
2022-10-24T21:58:41.131Z,1.17
2022-10-24T22:01:14.273Z,1.10
2022-10-24T22:03:43.089Z,1.27
2022-10-24T22:06:14.442Z,1.20
2022-10-24T22:08:45.166Z,1.23
2022-10-24T22:11:15.438Z,1.20
2022-10-24T22:13:44.104Z,1.10
2022-10-24T22:16:14.227Z,1.40
2022-10-24T22:18:42.816Z,1.27
2022-10-24T22:21:21.648Z,1.15
2022-10-24T22:24:17.055Z,1.30
2022-10-24T22:26:46.109Z,1.13
2022-10-24T22:29:16.667Z,1.02
2022-10-24T22:31:46.082Z,1.30
2022-10-24T22:34:18.076Z,1.30
2022-10-24T22:36:56.152Z,1.65
2022-10-24T22:39:27.005Z,1.38
2022-10-24T22:41:55.997Z,1.40
2022-10-24T22:44:24.798Z,1.50
2022-10-24T22:47:28.141Z,1.25
2022-10-24T22:50:03.827Z,1.42
2022-10-24T22:52:32.561Z,1.60
2022-10-24T22:55:03.998Z,1.63
2022-10-24T23:00:08.092Z,1.40
2022-10-24T23:02:41.598Z,1.83
2022-10-24T23:05:16.824Z,1.50
2022-10-24T23:07:50.907Z,1.60
2022-10-24T23:10:22.917Z,1.67
2022-10-24T23:12:52.214Z,1.63
2022-10-24T23:15:22.592Z,1.85
2022-10-24T23:17:51.619Z,1.95
2022-10-24T23:20:28.290Z,1.83
2022-10-24T23:23:09.205Z,1.55
2022-10-24T23:26:09.094Z,1.60
2022-10-24T23:28:46.214Z,1.58
2022-10-24T23:31:15.014Z,1.60
2022-10-24T23:33:43.808Z,1.52
2022-10-24T23:36:19.326Z,1.70
2022-10-24T23:38:48.356Z,1.58
2022-10-24T23:41:18.754Z,1.90
2022-10-24T23:43:47.564Z,2.10
2022-10-24T23:46:25.265Z,1.67
2022-10-24T23:49:07.749Z,1.70
2022-10-24T23:51:41.871Z,1.50
2022-10-24T23:54:12.516Z,1.60
2022-10-24T23:56:42.694Z,1.90
2022-10-24T23:59:11.005Z,1.38
